Corpus Christi, Texas
Current Conditions -  °F | °C
As of 12:51 PM on Friday 21 Nov 2014 (Local Time) from KCRP Reporting Station
Broken Clouds Broken Clouds  
Wind Chill: 79°   Ceiling: 7500
Heat Index: 81°   Visibility: 10mi
Dew Point: 67°   Wind: 22mph
Humidity: 66%   Direction: 150°SSE
Pressure: 30.04"   Gusts: 30mph
Location:  27.8°N, 97.4°W
Report Text: KCRP 211851Z 15019G26KT 10SM FEW024 SCT035 BKN075 BKN200 26/19 A3004 RMK AO2 PK WND 16029/1831 SLP170 T02610194
Loading
Personal Weather Stations






























Interactive Weather Map New forecast layout! Learn more

10-Day Weather Forecast

Advertisements
Track Severe Weather on mobile